»·PEaware :: N88PT KSEE-KSBP

N88PT :: KSEE-KSBP

FLIGHT INFORMATION

Flight Status: Arrived
Operator: Privately registered:
United States
More flights under this callsign
Pilot: Milan K. (5249)
Aircraft: PILATUS PC-12 EAGLE
(PC12)
More flights by this aircraft type
Origin: KSEE Gillespie
United States
Destination: KSBP San Luis Co Regl
United States
More flights between these airports :: More routes between these airports
Route: +CWARD2 LAX J88 CEANO
File this flight plan on PilotEdge
Remarks:
Altitude:
(Current/Filed)
21,000ft
Speed:
(Current/Filed)
250kts
Departed: 29-Dec-18 01:20 PM
Arrived: 29-Dec-18 02:34 PM
Distance/Time
Traveled:
233nm/1:14
Distance/Time
To Go:
Arrived

Flight Plot

Page will automatically refresh every two minutes.

Flight plan parsing failed; only flown route is shown


Map Options




Map Legend


Flown Route
Filed Route
Departure Airport
Arrival Airport
Navaid (VOR, NDB)
Fix

Horizontal Profiles

Position Reports

Time Latitude Longitude Heading Altitude Ground
Speed
29-Dec-18 12:52 32.822254 -116.974019 177 392ft 0kts
29-Dec-18 12:53 32.822254 -116.974019 177 392ft 0kts
29-Dec-18 12:54 32.822254 -116.974019 177 392ft 0kts
29-Dec-18 12:55 32.822254 -116.974019 177 392ft 0kts
29-Dec-18 12:56 32.822254 -116.974019 177 392ft 0kts
29-Dec-18 12:57 32.822254 -116.974019 177 392ft 0kts
29-Dec-18 12:58 32.822254 -116.974019 177 392ft 0kts
29-Dec-18 12:59 32.822254 -116.974019 177 392ft 0kts
29-Dec-18 13:00 32.822254 -116.974019 177 392ft 0kts
29-Dec-18 13:01 32.822254 -116.974019 177 392ft 0kts
29-Dec-18 13:02 32.822254 -116.974019 177 392ft 0kts
29-Dec-18 13:03 32.822254 -116.974019 177 392ft 0kts
29-Dec-18 13:04 32.822254 -116.974019 177 392ft 0kts
29-Dec-18 13:05 32.822254 -116.974019 177 392ft 0kts
29-Dec-18 13:06 32.822254 -116.974019 177 392ft 0kts
29-Dec-18 13:07 32.822254 -116.974019 177 392ft 0kts
29-Dec-18 13:08 32.822254 -116.974019 177 392ft 0kts
29-Dec-18 13:09 32.822254 -116.974019 177 392ft 0kts
29-Dec-18 13:10 32.822254 -116.974019 177 392ft 0kts
29-Dec-18 13:11 32.822254 -116.974019 177 392ft 0kts
29-Dec-18 13:12 32.822254 -116.974019 177 392ft 0kts
29-Dec-18 13:13 32.822254 -116.974019 177 392ft 0kts
29-Dec-18 13:14 32.822254 -116.974019 177 392ft 0kts
29-Dec-18 13:15 32.822143 -116.973775 86 392ft 9kts
29-Dec-18 13:16 32.823352 -116.972901 0 392ft 12kts
29-Dec-18 13:17 32.826078 -116.972349 106 392ft 17kts
29-Dec-18 13:18 32.825125 -116.964471 11 392ft 18kts
29-Dec-18 13:19 32.827036 -116.967919 282 392ft 56kts
29-Dec-18 13:20 32.839973 -116.995243 331 1126ft 126kts
29-Dec-18 13:21 32.870864 -117.015022 332 2794ft 131kts
29-Dec-18 13:22 32.908148 -117.039627 332 3793ft 169kts
29-Dec-18 13:23 32.951170 -117.074051 292 3998ft 217kts
29-Dec-18 13:24 32.960838 -117.142329 281 5046ft 205kts
29-Dec-18 13:25 32.968085 -117.209001 281 5868ft 208kts
29-Dec-18 13:26 32.975468 -117.280288 281 5988ft 231kts
29-Dec-18 13:27 32.968293 -117.351989 263 6984ft 219kts
29-Dec-18 13:28 32.948135 -117.419463 273 7862ft 217kts
29-Dec-18 13:29 32.959017 -117.486168 306 8714ft 207kts
29-Dec-18 13:30 32.986570 -117.545333 307 9594ft 208kts
29-Dec-18 13:31 33.013600 -117.605010 307 10484ft 207kts
29-Dec-18 13:32 33.038902 -117.663464 307 11630ft 197kts
29-Dec-18 13:33 33.062651 -117.720611 307 12698ft 194kts
29-Dec-18 13:34 33.093012 -117.768280 325 13700ft 181kts
29-Dec-18 13:35 33.130732 -117.799530 337 14967ft 162kts
29-Dec-18 13:36 33.166681 -117.828847 334 16181ft 159kts
29-Dec-18 13:37 33.200224 -117.861872 334 17310ft 160kts
29-Dec-18 13:38 33.238471 -117.873616 357 18316ft 146kts
29-Dec-18 13:39 33.279372 -117.883645 357 19178ft 158kts
29-Dec-18 13:40 33.321915 -117.894200 357 20113ft 160kts
29-Dec-18 13:41 33.364651 -117.904750 357 21056ft 160kts
29-Dec-18 13:42 33.406814 -117.931389 334 21337ft 202kts
29-Dec-18 13:43 33.452596 -117.974291 333 21342ft 220kts
29-Dec-18 13:44 33.500728 -118.019936 333 21337ft 227kts
29-Dec-18 13:45 33.549584 -118.066322 333 21337ft 229kts
29-Dec-18 13:46 33.597145 -118.111465 333 21343ft 230kts
29-Dec-18 13:47 33.645379 -118.157025 332 21344ft 229kts
29-Dec-18 13:48 33.693571 -118.202969 333 21349ft 230kts
29-Dec-18 13:49 33.737088 -118.244472 332 21347ft 230kts
29-Dec-18 13:50 33.786417 -118.291532 332 21305ft 232kts
29-Dec-18 13:51 33.836013 -118.339035 332 21300ft 232kts
29-Dec-18 13:52 33.885001 -118.386016 332 21302ft 231kts
29-Dec-18 13:53 33.932613 -118.432414 322 21302ft 240kts
29-Dec-18 13:54 33.965188 -118.505013 310 21300ft 253kts
29-Dec-18 13:55 33.997264 -118.578438 310 21306ft 253kts
29-Dec-18 13:56 34.029241 -118.651711 310 21310ft 253kts
29-Dec-18 13:57 34.061117 -118.724956 310 21315ft 253kts
29-Dec-18 13:58 34.093047 -118.798488 310 21313ft 253kts
29-Dec-18 13:59 34.124869 -118.871652 308 21316ft 253kts
29-Dec-18 14:00 34.156870 -118.945648 307 21315ft 253kts
29-Dec-18 14:01 34.188785 -119.019589 306 21318ft 252kts
29-Dec-18 14:02 34.220532 -119.093482 306 21317ft 253kts
29-Dec-18 14:03 34.252631 -119.167663 305 21302ft 253kts
29-Dec-18 14:04 34.284419 -119.241697 305 21286ft 253kts
29-Dec-18 14:05 34.315988 -119.315461 305 21272ft 253kts
29-Dec-18 14:06 34.347812 -119.390000 305 21252ft 253kts
29-Dec-18 14:07 34.379042 -119.463338 305 21253ft 252kts
29-Dec-18 14:08 34.410448 -119.537179 305 21257ft 252kts
29-Dec-18 14:09 34.441910 -119.611397 306 21316ft 250kts
29-Dec-18 14:10 34.473294 -119.685486 305 21324ft 253kts
29-Dec-18 14:11 34.504986 -119.760541 305 21324ft 255kts
29-Dec-18 14:12 34.555821 -119.809274 332 21329ft 238kts
29-Dec-18 14:13 34.609657 -119.853701 332 21331ft 240kts
29-Dec-18 14:14 34.663895 -119.898546 332 21329ft 240kts
29-Dec-18 14:15 34.717587 -119.942901 332 20133ft 239kts
29-Dec-18 14:16 34.770829 -119.987050 332 18636ft 233kts
29-Dec-18 14:17 34.822499 -120.029943 331 17114ft 228kts
29-Dec-18 14:18 34.872876 -120.071872 331 15539ft 212kts
29-Dec-18 14:19 34.918663 -120.109937 330 13928ft 197kts
29-Dec-18 14:21 34.961695 -120.145513 330 12482ft 185kts
29-Dec-18 14:22 35.002673 -120.179697 329 11052ft 179kts
29-Dec-18 14:23 35.042611 -120.213066 329 9647ft 175kts
29-Dec-18 14:24 35.069355 -120.260537 302 8291ft 179kts
29-Dec-18 14:25 35.092541 -120.312504 302 6943ft 176kts
29-Dec-18 14:26 35.111321 -120.366054 296 5618ft 174kts
29-Dec-18 14:27 35.120886 -120.423172 282 4272ft 175kts
29-Dec-18 14:28 35.140644 -120.475408 306 2953ft 168kts
29-Dec-18 14:29 35.165345 -120.516424 307 2251ft 130kts
29-Dec-18 14:30 35.182883 -120.545609 305 2070ft 116kts
29-Dec-18 14:31 35.200010 -120.576151 303 1600ft 104kts
29-Dec-18 14:32 35.216020 -120.603951 304 964ft 95kts
29-Dec-18 14:33 35.230579 -120.629220 306 359ft 90kts
29-Dec-18 14:34 35.239050 -120.644070 311 215ft 13kts
29-Dec-18 14:35 35.239961 -120.643955 28 215ft 5kts
29-Dec-18 14:36 35.238681 -120.640781 308 215ft 0kts
29-Dec-18 14:37 35.238681 -120.640781 308 215ft 0kts

Navigation Log

Ident Type
Flight plan parsing failed, navigation log unavailable